Oceana Nas /Apollo Soucek Field/ Station
KNTU : rendu visible

Aérodrome :











RETROUVEZ-NOUS SUR...

 
LOGIN :

S'inscrire | Disclaimer

   EN    FR    IT 

 









Légende :    VFR   VFR Marginal   IFR   IFR Intensif   IFR Très Intensif
Visi : 
Plafond : 
>= 8 km
>= 3000ft
5 à 8 km
1000 à 3000 ft
1500m à 5 km
500 à 1000 ft
800 à 1500m
200 à 500 ft
< 800m
< 200 ft
Symboles :   Orages  Brouillard  Fortes neiges  Fortes précipitations  Vent > 20 kt






- Altitude de l'aérodrome : 23 ft


KNTU - Oceana Nas /Apollo Soucek Field/ Station

DERNIER METAR :
  • 100656Z 21012KT 10SM SCT170 OVC220 18/15 A2994 RMK AO2 SLP139 T01780150

METARs EXPIRÉS :
  • 100556Z 22014G20KT 10SM OVC170 18/15 A2994 RMK AO2 SLP139 T01780150 10183 20172 58004
  • 100456Z 21011KT 10SM SCT160 BKN280 18/16 A2994 RMK AO2 SLP141 T01780156 401890094

TAF TAF KNTU
Valide du 10 à 07h jusqu'au 11 à 07h UTC


1007/1107 21011KT 9999 SCT150 BKN220 WS020/24050KT 550009 QNH2986INS
TEMPO 1007/1009 1600 BR BKN003 OVC010
FM100900 20014G24KT 9000 BR SCT150 BKN220 WS020/24050KT 550009 QNH2990INS
TEMPO 1009/1014 0800 FG VV002
TEMPO 1020/1023 4800 SHRA BKN005 OVC015
TEMPO 1023/1102 3200 SHRA BR BKN010 OVC025
FM110200 36012G19KT 8000 -SHRA BR SCT007 BKN010 OVC025 QNH3000INS T16/1009Z T20/1019Z FN00085



MET'MAP, la Météo Aéronautique d'un coup d'oeil ! - Copyright ORBIFLY Décembre 2007 - Disclaimer

ORBIFLY MET'MAP TEAM :

Programmation & Développement : Alexandra Zaïnal
Sur une idée originale de : Baudouin d'Aumeries
Assistance à la programmation : Marc-Olivier Méhu
Soutien technique & logistique : Manuel Goepfert

Contact : metmap@orbifly.com




SOURCES & CREDITS :

   NOAA       Earth
Advisory